ADDS TAF Data INFO

IDs: Format: Raw Decoded Include METARs

Data at: 1029 UTC 18 Dec 2014

Region: TOP
KATL 180938Z 1810/1912 31006KT P6SM SCT150 BKN250
  FM181500 34006KT P6SM BKN060
  FM190100 31005KT P6SM SCT080 BKN150
  FM190900 31006KT P6SM SCT150


KBOS 180909Z 1809/1912 28011G21KT P6SM BKN050
  TEMPO 1810/1812 -SHRASN
  FM181300 29016G26KT P6SM BKN040
  FM182000 30013G25KT P6SM BKN035
  FM190000 30011G22KT P6SM BKN035
  FM190200 30011G21KT P6SM SCT025


KBWI 180849Z 1809/1912 30011KT P6SM BKN050
  FM181300 29011KT P6SM SCT250
  FM181500 30012G20KT P6SM SCT250
  FM182200 31010KT P6SM SCT110
  FM190000 30007KT P6SM SCT150
  FM190500 29008KT P6SM BKN110
  FM190800 29008KT P6SM SCT110


KCLE 180855Z 1809/1912 26010KT P6SM OVC025
  FM190000 27010KT P6SM OVC035
  FM190400 27005KT P6SM VCSH OVC025


KCLT 180854Z 1809/1906 34003KT P6SM SCT250
  FM181500 04005KT P6SM BKN140
  FM181700 14004KT P6SM BKN070
  FM182000 22005KT P6SM BKN070
  FM190300 33003KT P6SM BKN060


KCVG 180925Z 1809/1912 31005KT P6SM OVC015
  FM181600 30005KT P6SM BKN022 OVC090
  FM181900 28005KT P6SM SCT025 OVC080
  FM190100 30003KT P6SM OVC050


KDCA 180849Z 1809/1906 30010KT P6SM BKN060
  FM181100 30009KT P6SM SCT140
  FM181600 30011G19KT P6SM SCT200
  FM182100 30009KT P6SM SCT200
  FM190300 31007KT P6SM BKN110


KDEN 180854Z 1809/1912 23006KT P6SM SCT070 BKN150
  FM181500 VRB05KT P6SM SCT070 BKN140
  FM182200 10005KT P6SM BKN060 OVC100


KDFW 181021Z 1810/1912 10006KT 2SM -DZ BR OVC003
  FM181600 09004KT 2SM BR OVC006
  FM182000 05005KT P6SM SCT008 OVC012
  FM190100 04005KT 5SM BR OVC007
  FM190300 03008KT 3SM BR OVC004
  TEMPO 1909/1912 1/2SM FG OVC002


KDTW 180906Z 1809/1912 27010KT P6SM OVC025
  FM181600 30008KT P6SM OVC025


KEWR 180836Z 1809/1912 29018G26KT P6SM SCT035 BKN060
  TEMPO 1809/1811 P6SM BKN035
  FM182200 30012G18KT P6SM SCT035
  FM190100 30010KT P6SM SCT035


KFLL 180905Z 1809/1906 25008KT P6SM SCT150
  FM182100 10006KT P6SM SKC
  FM190000 29002KT P6SM SKC


KIAD 180849Z 1809/1912 30009KT P6SM BKN050
  FM181200 30009KT P6SM SCT250
  FM181500 30012G20KT P6SM SCT250
  FM182200 31010KT P6SM SCT110
  FM190200 31006KT P6SM BKN110
  FM190800 30006KT P6SM SCT090


KIAH 180859Z 1809/1912 06005KT P6SM -RA OVC011
  TEMPO 1809/1813 5SM RA BR SCT006 OVC009
  FM181800 07006KT P6SM VCSH BKN020
  FM190000 05005KT P6SM -RA SCT009 BKN012
  FM190600 06005KT 6SM RA BR BKN009


KJFK 180836Z 1809/1912 29019G28KT P6SM SCT035 BKN060
  TEMPO 1809/1811 BKN035
  FM182200 30014G20KT P6SM SCT035
  FM190200 31012KT P6SM SCT035


KLAS 180845Z 1809/1906 VRB04KT P6SM OVC070
  FM181500 VRB04KT P6SM SCT060 BKN100
  FM182000 VRB04KT P6SM FEW060 SCT100
  FM190200 21004KT P6SM FEW080 SCT250


KLAX 180855Z 1809/1912 VRB03KT P6SM SCT025 SCT100
  FM181200 VRB03KT P6SM VCSH SCT025 BKN070
  FM181800 VRB03KT P6SM SCT035 SCT050
  FM182100 27009KT P6SM SCT035 SCT050
  FM190300 VRB03KT P6SM SCT025 SCT050
  FM191000 VRB03KT 5SM BR SCT025 SCT050


KLGA 180836Z 1809/1906 30018G26KT P6SM SCT035 BKN060
  TEMPO 1809/1811 P6SM -SHSN BKN035
  FM182200 31013G20KT P6SM SCT035
  FM190200 31012KT P6SM SCT035


KMCO 180920Z 1809/1906 29002KT P6SM SCT250
  FM181400 32005KT P6SM BKN250


KMDW 180910Z 1809/1906 32005KT P6SM OVC020
  FM181500 31005KT P6SM SCT020 BKN200
  FM190100 30003KT P6SM SCT200


KMEM 180900Z 1809/1906 12005KT 5SM -RA SCT025 OVC070
  FM181000 13003KT 6SM -RA BR SCT009 OVC025
  FM181400 13004KT P6SM VCSH OVC015
  FM181800 13003KT P6SM OVC015


KMIA 180905Z 1809/1906 29004KT P6SM SKC
  FM182200 17006KT P6SM SKC
  FM190000 VRB03KT P6SM SKC


KMSP 180906Z 1809/1912 VRB03KT P6SM BKN020
  TEMPO 1809/1811 FEW020
  FM181500 14003KT P6SM SCT025 BKN080


KORD 180910Z 1809/1912 34005KT P6SM SCT020 BKN200
  FM181200 32005KT P6SM FEW020 BKN200
  FM190100 30003KT P6SM SCT200


KPDX 180901Z 1809/1906 12008KT P6SM -RA BKN020 OVC050
  FM181100 11005KT 6SM BR FEW008 SCT015 BKN030
  FM181500 11012KT P6SM FEW030 BKN050
  FM182300 11012KT P6SM -RA SCT030 OVC060


KPHL 180841Z 1809/1912 30011G18KT P6SM FEW040
  FM181500 30016G25KT P6SM FEW045
  FM182300 30010KT P6SM SCT050


KPHX 180847Z 1809/1906 10006KT P6SM BKN020 BKN050 OVC100
  TEMPO 1809/1813 FEW020 BKN060
  FM181400 VRB05KT P6SM VCSH SCT040 BKN060 OVC100
  FM182100 25006KT P6SM SCT050 BKN080 BKN120
  FM190400 10005KT P6SM FEW200


KPIT 180918Z 1809/1912 27010KT P6SM -SN OVC025
  FM181000 26012KT P6SM OVC035


KSAN 180919Z 1809/1912 VRB03KT P6SM VCSH SCT030 BKN040
  FM181300 VRB04KT P6SM BKN040
  FM181800 29009KT P6SM SCT040
  FM190100 VRB04KT P6SM SCT040


KSEA 180803Z 1808/1912 16005KT 5SM -SHRA BR SCT010 BKN020 OVC050
  TEMPO 1808/1812 2SM -SHRA BR BKN005 OVC012
  FM181200 15005KT 6SM BR VCSH BKN012 OVC035
  FM181800 13006KT P6SM BKN050 BKN100
  FM190100 13009KT P6SM -RA OVC035
  FM190900 18012G18KT P6SM -RA OVC022


KSFO 180909Z 1809/1912 15006KT P6SM VCSH FEW009 OVC023
  FM181500 13004KT P6SM BKN030
  FM181900 10005KT P6SM BKN030 BKN050
  FM182300 18008KT P6SM BKN050 OVC100
  PROB30 1906/1912 P6SM -RA OVC050


KSLC 180906Z 1809/1912 15005KT P6SM SCT060 BKN080
  TEMPO 1809/1812 6SM BR
  FM181500 17004KT P6SM SCT050 BKN070
  FM182000 30005KT P6SM SCT060 BKN080
  FM190300 15005KT P6SM SCT080 SCT120


KSTL 180910Z 1809/1912 08005KT P6SM OVC060
  FM181200 08004KT 6SM -SN OVC035
  FM181400 09004KT 2SM -SN BR OVC020
  FM181800 09004KT 5SM -DZ BR OVC007
  FM182300 06003KT 5SM BR OVC009


KTPA 180909Z 1809/1906 VRB03KT P6SM BKN250
  FM181500 32007KT P6SM FEW035 BKN250
  FM190100 VRB03KT P6SM BKN250



Page loaded:  10:29 UTC  |   02:29 AM Pacific  |   03:29 AM Mountain  |   04:29 AM Central  |   05:29 AM Eastern

 

ADVISORIES

FORECASTS

FORECASTS

OBSERVATIONS

USER TOOLS

ABOUT US